createdAt,value
2017-02-11T00:02:41.516Z,1015
2017-02-11T00:23:09.618Z,1015.1
2017-02-11T00:33:23.118Z,1015.1
2017-02-11T00:43:36.528Z,1015.2
2017-02-11T00:53:49.879Z,1015.3
2017-02-11T01:04:04.344Z,1015.2
2017-02-11T01:14:18.710Z,1015.2
2017-02-11T01:24:32.148Z,1015
2017-02-11T01:34:46.299Z,1015.1
2017-02-11T01:45:00.830Z,1015
2017-02-11T01:55:14.489Z,1014.9
2017-02-11T02:05:28.215Z,1014.7
2017-02-11T02:15:42.687Z,1014.7
2017-02-11T02:25:56.234Z,1014.8
2017-02-11T02:36:10.945Z,1014.6
2017-02-11T02:46:25.556Z,1014.6
2017-02-11T02:56:40.437Z,1014.6
2017-02-11T03:06:54.128Z,1014.6
2017-02-11T03:17:07.735Z,1014.6
2017-02-11T03:27:22.737Z,1014.6
2017-02-11T03:37:37.219Z,1014.6
2017-02-11T03:47:51.252Z,1014.4
2017-02-11T03:58:04.494Z,1014.3
2017-02-11T04:08:18.334Z,1014.4
2017-02-11T04:18:33.280Z,1014.4
2017-02-11T04:28:47.343Z,1014.7
2017-02-11T04:39:02.211Z,1014.6
2017-02-11T04:49:15.735Z,1014.5
2017-02-11T04:59:29.442Z,1014.4
2017-02-11T05:09:42.811Z,1014.3
2017-02-11T05:19:55.963Z,1014.4
2017-02-11T05:30:10.347Z,1014.4
2017-02-11T05:40:25.197Z,1014.3
2017-02-11T05:50:38.505Z,1014.2
2017-02-11T06:00:52.938Z,1014
2017-02-11T06:11:06.166Z,1014.1
2017-02-11T06:21:21.582Z,1014.1
2017-02-11T06:31:34.128Z,1014.3
2017-02-11T06:41:47.280Z,1014.1
2017-02-11T06:52:00.347Z,1014.3
2017-02-11T07:02:15.184Z,1014.4
2017-02-11T07:12:28.084Z,1014.2
2017-02-11T07:22:41.912Z,1014.3
2017-02-11T07:32:55.732Z,1014.2
2017-02-11T07:43:10.190Z,1014.2
2017-02-11T07:53:23.835Z,1014.5
2017-02-11T08:03:36.937Z,1014.7
2017-02-11T08:13:50.867Z,1014.8
2017-02-11T08:24:05.137Z,1014.5
2017-02-11T08:34:19.387Z,1014.5
2017-02-11T08:44:33.493Z,1014.4
2017-02-11T08:54:47.799Z,1014.5
2017-02-11T09:05:02.305Z,1014.5
2017-02-11T09:15:16.376Z,1014.5
2017-02-11T09:25:30.410Z,1014.6
2017-02-11T09:35:43.471Z,1014.6
2017-02-11T09:45:56.588Z,1014.6
2017-02-11T09:56:10.386Z,1014.5
2017-02-11T10:06:23.479Z,1014.5
2017-02-11T10:16:36.538Z,1014.4
2017-02-11T10:26:51.362Z,1014.5
2017-02-11T10:37:06.172Z,1014.4
2017-02-11T10:47:19.383Z,1014.3
2017-02-11T10:57:33.679Z,1014.3
2017-02-11T11:07:48.362Z,1014.4
2017-02-11T11:18:02.502Z,1014.4
2017-02-11T11:28:16.072Z,1014.4
2017-02-11T11:38:29.796Z,1014.4
2017-02-11T11:48:43.888Z,1014.4
2017-02-11T11:58:58.236Z,1014.3
2017-02-11T12:09:12.458Z,1014.3
2017-02-11T12:19:26.218Z,1014.3
2017-02-11T12:29:40.544Z,1014.3
2017-02-11T12:39:53.696Z,1014.4
2017-02-11T12:50:08.540Z,1014.1
2017-02-11T13:00:22.614Z,1014
2017-02-11T13:10:37.658Z,1013.8
2017-02-11T13:20:51.509Z,1014
2017-02-11T13:31:05.669Z,1013.6
2017-02-11T13:41:19.523Z,1013.5
2017-02-11T13:51:33.260Z,1013.6
2017-02-11T14:01:47.300Z,1013.2
2017-02-11T14:12:01.813Z,1013.5
2017-02-11T14:22:16.564Z,1013.4
2017-02-11T14:32:30.789Z,1013.6
2017-02-11T14:42:45.560Z,1013.5
2017-02-11T14:52:58.854Z,1013.7
2017-02-11T15:03:13.740Z,1013.8
2017-02-11T15:13:27.224Z,1013.9
2017-02-11T15:23:41.871Z,1013.8
2017-02-11T15:33:55.880Z,1013.8
2017-02-11T15:44:09.974Z,1013.7
2017-02-11T15:54:23.896Z,1013.5
2017-02-11T16:04:38.890Z,1013.4
2017-02-11T16:14:53.477Z,1013.3
2017-02-11T16:25:06.662Z,1013.5
2017-02-11T16:35:21.071Z,1013.4
2017-02-11T16:45:35.479Z,1013.7
2017-02-11T16:55:49.720Z,1014
2017-02-11T17:06:04.148Z,1013.9
2017-02-11T17:16:18.674Z,1013.9
2017-02-11T17:26:33.214Z,1014
2017-02-11T17:36:47.173Z,1014.2
2017-02-11T17:47:00.823Z,1014
2017-02-11T17:57:14.896Z,1014.2
2017-02-11T18:07:27.989Z,1014.3
2017-02-11T18:17:42.502Z,1014.3
2017-02-11T18:27:55.706Z,1014.4
2017-02-11T18:38:09.165Z,1014.5
2017-02-11T18:48:23.459Z,1014.4
2017-02-11T18:58:36.227Z,1014.4
2017-02-11T19:08:49.337Z,1014.5
2017-02-11T19:19:03.689Z,1014.5
2017-02-11T19:29:18.041Z,1014.5
2017-02-11T19:39:31.659Z,1014.6
2017-02-11T19:49:45.895Z,1014.5
2017-02-11T20:00:00.154Z,1014.6
2017-02-11T20:10:15.202Z,1014.6
2017-02-11T20:20:28.675Z,1014.7
2017-02-11T20:30:41.768Z,1014.8
2017-02-11T20:40:55.669Z,1014.6
2017-02-11T20:51:09.617Z,1014.6
2017-02-11T21:01:24.509Z,1014.9
2017-02-11T21:11:39.466Z,1014.8
2017-02-11T21:21:54.257Z,1014.3
2017-02-11T21:32:08.035Z,1014.6
2017-02-11T21:42:22.486Z,1014.7
2017-02-11T21:52:36.603Z,1015
2017-02-11T22:02:50.784Z,1014.9
2017-02-11T22:13:05.678Z,1014.9
2017-02-11T22:23:19.439Z,1014.9
2017-02-11T22:33:33.120Z,1015
2017-02-11T22:43:47.943Z,1015
2017-02-11T22:54:02.599Z,1014.9
2017-02-11T23:04:16.596Z,1014.8
2017-02-11T23:14:29.741Z,1014.9
2017-02-11T23:24:43.785Z,1014.9
2017-02-11T23:34:58.621Z,1015
2017-02-11T23:45:12.700Z,1015.1
2017-02-11T23:55:25.964Z,1015.4
